createdAt,value
2022-11-28T00:00:51.072Z,969.61
2022-11-28T00:01:51.330Z,969.55
2022-11-28T00:02:51.528Z,969.55
2022-11-28T00:03:51.664Z,969.59
2022-11-28T00:04:51.783Z,969.59
2022-11-28T00:05:51.966Z,969.55
2022-11-28T00:06:52.084Z,969.54
2022-11-28T00:07:52.292Z,969.54
2022-11-28T00:08:52.433Z,969.53
2022-11-28T00:09:52.654Z,969.51
2022-11-28T00:10:52.862Z,969.49
2022-11-28T00:11:53.135Z,969.51
2022-11-28T00:12:53.305Z,969.47
2022-11-28T00:13:53.545Z,969.46
2022-11-28T00:14:53.766Z,969.48
2022-11-28T00:15:54.042Z,969.49
2022-11-28T00:16:54.210Z,969.50
2022-11-28T00:17:54.437Z,969.50
2022-11-28T00:18:54.662Z,969.51
2022-11-28T00:19:54.889Z,969.51
2022-11-28T00:20:55.098Z,969.52
2022-11-28T00:21:55.337Z,969.56
2022-11-28T00:22:55.548Z,969.47
2022-11-28T00:23:55.780Z,969.53
2022-11-28T00:24:55.999Z,969.51
2022-11-28T00:25:56.220Z,969.54
2022-11-28T00:26:56.439Z,969.48
2022-11-28T00:27:56.678Z,969.47
2022-11-28T00:28:56.890Z,969.53
2022-11-28T00:29:57.132Z,969.54
2022-11-28T00:30:57.341Z,969.52
2022-11-28T00:31:57.645Z,969.49
2022-11-28T00:32:57.722Z,969.53
2022-11-28T00:33:57.960Z,969.48
2022-11-28T00:34:58.172Z,969.50
2022-11-28T00:35:58.415Z,969.53
2022-11-28T00:36:58.647Z,969.47
2022-11-28T00:37:58.876Z,969.52
2022-11-28T00:38:59.083Z,969.52
2022-11-28T00:39:59.323Z,969.52
2022-11-28T00:40:59.534Z,969.48
2022-11-28T00:41:59.774Z,969.45
2022-11-28T00:42:59.999Z,969.40
2022-11-28T00:44:00.232Z,969.42
2022-11-28T00:45:00.447Z,969.42
2022-11-28T00:46:00.762Z,969.42
2022-11-28T00:47:00.835Z,969.41
2022-11-28T00:48:01.066Z,969.41
2022-11-28T00:49:01.267Z,969.39
2022-11-28T00:50:01.514Z,969.28
2022-11-28T00:51:01.728Z,969.29
2022-11-28T00:52:01.958Z,969.28
2022-11-28T00:53:02.177Z,969.29
2022-11-28T00:54:02.408Z,969.25
2022-11-28T00:55:02.628Z,969.22
2022-11-28T00:56:02.866Z,969.22
2022-11-28T00:57:03.079Z,969.22
2022-11-28T00:58:03.317Z,969.23
2022-11-28T00:59:03.521Z,969.25
2022-11-28T01:00:03.759Z,969.22
2022-11-28T01:01:04.015Z,969.25
2022-11-28T01:02:04.264Z,969.23
2022-11-28T01:03:04.373Z,969.22
2022-11-28T01:04:04.641Z,969.24
2022-11-28T01:05:04.820Z,969.20
2022-11-28T01:06:05.049Z,969.19
2022-11-28T01:07:05.151Z,969.19
2022-11-28T01:08:05.390Z,969.17
2022-11-28T01:09:05.612Z,969.15
2022-11-28T01:10:05.852Z,969.15
2022-11-28T01:11:06.072Z,969.11
2022-11-28T01:12:06.294Z,969.07
2022-11-28T01:13:06.515Z,969.15
2022-11-28T01:14:06.752Z,969.17
2022-11-28T01:15:06.974Z,969.20
2022-11-28T01:16:07.231Z,969.17
2022-11-28T01:17:07.324Z,969.16
2022-11-28T01:18:07.565Z,969.16
2022-11-28T01:19:07.806Z,969.13
2022-11-28T01:20:08.076Z,969.09
2022-11-28T01:21:08.255Z,969.14
2022-11-28T01:22:08.496Z,969.13
2022-11-28T01:23:08.715Z,969.11
2022-11-28T01:24:08.947Z,969.14
2022-11-28T01:25:09.175Z,969.10
2022-11-28T01:26:09.396Z,969.08
2022-11-28T01:27:09.607Z,969.07
2022-11-28T01:28:09.846Z,969.08
2022-11-28T01:29:10.058Z,969.08
2022-11-28T01:30:10.298Z,969.07
2022-11-28T01:31:10.584Z,969.10
2022-11-28T01:32:10.759Z,969.06
2022-11-28T01:33:10.980Z,969.08
2022-11-28T01:34:11.211Z,969.08
2022-11-28T01:35:11.444Z,969.07
2022-11-28T01:36:11.673Z,969.07
2022-11-28T01:37:11.888Z,969.07
2022-11-28T01:38:12.111Z,969.05
2022-11-28T01:39:12.331Z,969.05
2022-11-28T01:40:12.562Z,969.06
2022-11-28T01:41:12.784Z,969.01
2022-11-28T01:42:13.018Z,969.05
2022-11-28T01:43:13.231Z,969.02
2022-11-28T01:44:13.463Z,969.04
2022-11-28T01:45:14.162Z,969.03
2022-11-28T01:46:13.995Z,969.00
2022-11-28T01:47:14.173Z,968.99
2022-11-28T01:48:14.434Z,969.03
2022-11-28T01:49:14.606Z,969.00
2022-11-28T01:50:14.960Z,969.03
2022-11-28T01:51:15.064Z,969.03
2022-11-28T01:52:15.262Z,968.97
2022-11-28T01:53:15.475Z,968.97
2022-11-28T01:54:15.741Z,968.98
2022-11-28T01:55:17.484Z,968.93
2022-11-28T01:56:16.096Z,968.90
2022-11-28T01:57:16.265Z,968.90
2022-11-28T01:58:16.494Z,968.86
2022-11-28T01:59:16.707Z,968.87
2022-11-28T02:00:16.954Z,968.85
2022-11-28T02:01:17.220Z,968.84
2022-11-28T02:02:17.355Z,968.78
2022-11-28T02:03:17.528Z,968.74
2022-11-28T02:04:17.759Z,968.73
2022-11-28T02:05:17.968Z,968.73
2022-11-28T02:06:18.207Z,968.67
2022-11-28T02:07:18.479Z,968.74
2022-11-28T02:08:18.576Z,968.69
2022-11-28T02:09:18.779Z,968.68
2022-11-28T02:10:19.019Z,968.69
2022-11-28T02:11:19.239Z,968.64
2022-11-28T02:12:19.480Z,968.67
2022-11-28T02:13:19.694Z,968.63
2022-11-28T02:14:19.930Z,968.61
2022-11-28T02:15:20.131Z,968.56
2022-11-28T02:16:20.487Z,968.56
2022-11-28T02:17:20.561Z,968.52
2022-11-28T02:18:20.803Z,968.52
2022-11-28T02:19:21.011Z,968.51
2022-11-28T02:20:21.239Z,968.49
2022-11-28T02:21:21.460Z,968.52
2022-11-28T02:22:21.774Z,968.54
2022-11-28T02:23:21.832Z,968.54
2022-11-28T02:24:22.064Z,968.50
2022-11-28T02:25:22.274Z,968.56
2022-11-28T02:26:22.504Z,968.54
2022-11-28T02:27:22.723Z,968.53
2022-11-28T02:28:22.956Z,968.52
2022-11-28T02:29:23.168Z,968.52
2022-11-28T02:30:23.395Z,968.52
2022-11-28T02:31:23.670Z,968.51
2022-11-28T02:32:23.788Z,968.48
2022-11-28T02:33:24.006Z,968.44
2022-11-28T02:34:24.237Z,968.47
2022-11-28T02:35:24.454Z,968.48
2022-11-28T02:36:24.697Z,968.46
2022-11-28T02:37:24.907Z,968.48
2022-11-28T02:38:25.169Z,968.46
2022-11-28T02:39:25.358Z,968.40
2022-11-28T02:40:25.588Z,968.44
2022-11-28T02:41:25.811Z,968.43
2022-11-28T02:42:26.046Z,968.41
2022-11-28T02:43:26.258Z,968.42
2022-11-28T02:44:26.489Z,968.42
2022-11-28T02:45:26.689Z,968.45
2022-11-28T02:46:26.931Z,968.38
2022-11-28T02:47:27.111Z,968.43
2022-11-28T02:48:27.342Z,968.39
2022-11-28T02:49:27.551Z,968.36
2022-11-28T02:50:27.789Z,968.42
2022-11-28T02:51:28.002Z,968.41
2022-11-28T02:52:28.231Z,968.38
2022-11-28T02:53:28.431Z,968.40
2022-11-28T02:54:28.662Z,968.44
2022-11-28T02:55:28.897Z,968.47
2022-11-28T02:56:29.137Z,968.44
2022-11-28T02:57:29.353Z,968.40
2022-11-28T02:58:29.590Z,968.45
2022-11-28T02:59:29.804Z,968.43
2022-11-28T03:00:30.147Z,968.42
2022-11-28T03:01:30.329Z,968.41
2022-11-28T03:02:30.523Z,968.42
2022-11-28T03:03:30.625Z,968.39
2022-11-28T03:04:30.846Z,968.41
2022-11-28T03:05:31.037Z,968.44
2022-11-28T03:06:31.265Z,968.44
2022-11-28T03:07:31.553Z,968.46
2022-11-28T03:08:31.646Z,968.45
2022-11-28T03:09:31.866Z,968.42
2022-11-28T03:10:32.118Z,968.48
2022-11-28T03:11:32.217Z,968.48
2022-11-28T03:12:32.455Z,968.46
2022-11-28T03:13:32.678Z,968.53
2022-11-28T03:14:32.957Z,968.53
2022-11-28T03:15:33.018Z,968.55
2022-11-28T03:16:33.349Z,968.53
2022-11-28T03:17:33.528Z,968.55
2022-11-28T03:18:33.659Z,968.56
2022-11-28T03:19:33.788Z,968.53
2022-11-28T03:20:33.971Z,968.51
2022-11-28T03:21:34.180Z,968.52
2022-11-28T03:22:34.430Z,968.46
2022-11-28T03:23:34.652Z,968.47
2022-11-28T03:24:34.941Z,968.48
2022-11-28T03:25:35.000Z,968.44
2022-11-28T03:26:35.241Z,968.44
2022-11-28T03:27:35.452Z,968.49
2022-11-28T03:28:40.583Z,968.43
2022-11-28T03:29:36.883Z,968.37
2022-11-28T03:30:36.089Z,968.43
2022-11-28T03:31:36.353Z,968.40
2022-11-28T03:32:36.485Z,968.39
2022-11-28T03:33:36.668Z,968.40
2022-11-28T03:34:36.893Z,968.37
2022-11-28T03:35:37.102Z,968.40
2022-11-28T03:36:37.335Z,968.42
2022-11-28T03:37:37.558Z,968.40
2022-11-28T03:38:37.785Z,968.37
2022-11-28T03:39:38.008Z,968.36
2022-11-28T03:40:38.255Z,968.30
2022-11-28T03:41:38.483Z,968.35
2022-11-28T03:42:38.716Z,968.31
2022-11-28T03:43:38.937Z,968.33
2022-11-28T03:44:39.178Z,968.32
2022-11-28T03:45:39.388Z,968.31
2022-11-28T03:46:39.681Z,968.29
2022-11-28T03:47:39.789Z,968.28
2022-11-28T03:48:40.028Z,968.29
2022-11-28T03:49:40.241Z,968.27
2022-11-28T03:50:40.477Z,968.31
2022-11-28T03:51:40.690Z,968.24
2022-11-28T03:52:40.957Z,968.22
2022-11-28T03:53:41.131Z,968.21
2022-11-28T03:54:41.752Z,968.27
2022-11-28T03:55:41.623Z,968.24
2022-11-28T03:56:41.738Z,968.23
2022-11-28T03:57:41.942Z,968.19
2022-11-28T03:58:42.199Z,968.21
2022-11-28T03:59:42.414Z,968.20
2022-11-28T04:00:42.679Z,968.17
2022-11-28T04:01:42.773Z,968.18
2022-11-28T04:02:43.069Z,968.16
2022-11-28T04:03:43.171Z,968.15
2022-11-28T04:04:43.692Z,968.13
2022-11-28T04:05:43.511Z,968.10
2022-11-28T04:06:43.754Z,968.07
2022-11-28T04:07:44.013Z,968.04
2022-11-28T04:08:44.214Z,968.03
2022-11-28T04:09:44.454Z,968.00
2022-11-28T04:10:44.664Z,968.00
2022-11-28T04:11:44.892Z,967.96
2022-11-28T04:12:45.105Z,967.96
2022-11-28T04:13:45.348Z,967.93
2022-11-28T04:14:45.555Z,967.91
2022-11-28T04:15:45.787Z,967.95
2022-11-28T04:16:50.549Z,967.88
2022-11-28T04:17:47.224Z,967.85
2022-11-28T04:18:46.387Z,967.86
2022-11-28T04:19:46.628Z,967.84
2022-11-28T04:20:46.848Z,967.82
2022-11-28T04:21:47.085Z,967.85
2022-11-28T04:22:47.289Z,967.81
2022-11-28T04:23:47.518Z,967.79
2022-11-28T04:24:47.741Z,967.74
2022-11-28T04:25:47.969Z,967.77
2022-11-28T04:26:48.189Z,967.74
2022-11-28T04:27:48.416Z,967.79
2022-11-28T04:28:48.630Z,967.80
2022-11-28T04:29:48.871Z,967.78
2022-11-28T04:30:49.071Z,967.84
2022-11-28T04:31:49.385Z,967.81
2022-11-28T04:32:49.449Z,967.81
2022-11-28T04:33:49.692Z,967.81
2022-11-28T04:34:49.904Z,967.78
2022-11-28T04:35:50.188Z,967.78
2022-11-28T04:36:50.361Z,967.80
2022-11-28T04:37:50.603Z,967.82
2022-11-28T04:38:50.825Z,967.81
2022-11-28T04:39:51.062Z,967.94
2022-11-28T04:40:51.273Z,967.95
2022-11-28T04:41:51.513Z,967.97
2022-11-28T04:42:53.120Z,967.95
2022-11-28T04:43:51.952Z,967.98
2022-11-28T04:44:52.164Z,967.96
2022-11-28T04:45:52.437Z,967.96
2022-11-28T04:46:52.634Z,967.96
2022-11-28T04:47:52.865Z,967.97
2022-11-28T04:48:53.086Z,967.95
2022-11-28T04:49:53.331Z,967.94
2022-11-28T04:50:53.596Z,967.99
2022-11-28T04:51:53.846Z,968.01
2022-11-28T04:52:54.026Z,968.04
2022-11-28T04:53:54.251Z,968.03
2022-11-28T04:54:54.467Z,968.04
2022-11-28T04:55:55.237Z,968.02
2022-11-28T04:56:54.879Z,968.08
2022-11-28T04:57:57.488Z,968.11
2022-11-28T04:58:55.237Z,968.11
2022-11-28T04:59:55.470Z,968.09
2022-11-28T05:00:55.743Z,968.09
2022-11-28T05:01:56.096Z,968.08
2022-11-28T05:02:56.059Z,968.10
2022-11-28T05:03:56.300Z,968.13
2022-11-28T05:04:56.511Z,968.10
2022-11-28T05:05:56.733Z,968.10
2022-11-28T05:06:56.951Z,968.14
2022-11-28T05:07:57.247Z,968.09
2022-11-28T05:08:57.301Z,968.08
2022-11-28T05:09:57.533Z,968.06
2022-11-28T05:10:57.742Z,968.05
2022-11-28T05:11:57.992Z,968.04
2022-11-28T05:12:58.193Z,968.05
2022-11-28T05:13:58.424Z,968.12
2022-11-28T05:14:58.642Z,968.15
2022-11-28T05:15:58.912Z,968.14
2022-11-28T05:16:59.013Z,968.22
2022-11-28T05:17:59.255Z,968.21
2022-11-28T05:18:59.477Z,968.18
2022-11-28T05:19:59.714Z,968.18
2022-11-28T05:20:59.925Z,968.16
2022-11-28T05:22:00.160Z,968.17
2022-11-28T05:23:00.378Z,968.20
2022-11-28T05:24:00.605Z,968.17
2022-11-28T05:25:00.835Z,968.16
2022-11-28T05:26:01.066Z,968.18
2022-11-28T05:27:01.284Z,968.20
2022-11-28T05:28:01.518Z,968.16
2022-11-28T05:29:01.639Z,968.14
2022-11-28T05:30:01.858Z,968.12
2022-11-28T05:31:02.078Z,968.15
2022-11-28T05:46:11.570Z,968.17
2022-11-28T05:47:11.687Z,968.21
2022-11-28T05:48:12.028Z,968.25
2022-11-28T05:49:12.366Z,968.20
2022-11-28T05:50:12.715Z,968.21
2022-11-28T05:51:13.075Z,968.22
2022-11-28T05:52:13.416Z,968.24
2022-11-28T05:53:13.776Z,968.29
2022-11-28T05:54:14.117Z,968.28
2022-11-28T05:55:14.477Z,968.33
2022-11-28T05:56:14.808Z,968.32
2022-11-28T05:57:15.168Z,968.36
2022-11-28T05:58:15.498Z,968.35
2022-11-28T05:59:15.862Z,968.36
2022-11-28T06:00:16.203Z,968.33
2022-11-28T06:01:16.549Z,968.35
2022-11-28T06:02:16.930Z,968.29
2022-11-28T06:03:17.289Z,968.25
2022-11-28T06:04:17.626Z,968.23
2022-11-28T06:05:41.034Z,968.23
2022-11-28T06:06:20.150Z,968.23
2022-11-28T06:07:18.783Z,968.20
2022-11-28T06:08:18.981Z,968.14
2022-11-28T06:09:24.520Z,968.16
2022-11-28T06:10:20.671Z,968.14
2022-11-28T06:11:19.951Z,968.16
2022-11-28T06:12:20.290Z,968.17
2022-11-28T06:13:20.648Z,968.16
2022-11-28T06:14:20.985Z,968.13
2022-11-28T06:15:21.323Z,968.16
2022-11-28T06:16:21.777Z,968.14
2022-11-28T06:17:21.954Z,968.13
2022-11-28T06:18:22.292Z,968.06
2022-11-28T06:19:22.615Z,968.11
2022-11-28T06:20:22.974Z,968.08
2022-11-28T06:21:23.314Z,968.10
2022-11-28T06:22:23.655Z,968.05
2022-11-28T06:23:24.004Z,968.08
2022-11-28T06:24:24.355Z,968.10
2022-11-28T06:25:24.706Z,968.09
2022-11-28T06:26:25.058Z,968.13
2022-11-28T06:27:25.396Z,968.11
2022-11-28T06:28:25.767Z,968.08
2022-11-28T06:29:26.105Z,968.13
2022-11-28T06:30:26.437Z,968.10
2022-11-28T06:31:26.818Z,968.09
2022-11-28T06:32:27.167Z,968.09
2022-11-28T06:33:27.509Z,968.08
2022-11-28T06:34:27.865Z,968.10
2022-11-28T06:35:28.197Z,968.07
2022-11-28T06:36:28.549Z,968.08
2022-11-28T06:37:28.893Z,968.06
2022-11-28T06:38:29.249Z,968.02
2022-11-28T06:39:29.587Z,968.02
2022-11-28T06:40:29.990Z,967.99
2022-11-28T06:41:30.221Z,968.00
2022-11-28T06:42:30.590Z,967.97
2022-11-28T06:43:30.956Z,967.93
2022-11-28T06:44:31.310Z,967.97
2022-11-28T06:45:31.710Z,967.96
2022-11-28T06:46:32.020Z,967.93
2022-11-28T06:47:32.221Z,967.85
2022-11-28T06:48:32.601Z,967.89
2022-11-28T06:49:32.871Z,967.89
2022-11-28T06:50:33.333Z,967.82
2022-11-28T06:51:33.612Z,967.78
2022-11-28T06:52:33.863Z,967.81
2022-11-28T06:53:34.093Z,967.69
2022-11-28T06:54:34.465Z,967.71
2022-11-28T06:55:34.813Z,967.67
2022-11-28T06:56:35.194Z,967.68
2022-11-28T06:57:35.435Z,967.66
2022-11-28T06:58:35.838Z,967.68
2022-11-28T06:59:36.176Z,967.69
2022-11-28T07:00:36.554Z,967.68
2022-11-28T07:01:36.977Z,967.67
2022-11-28T07:02:37.301Z,967.68
2022-11-28T07:03:37.543Z,967.64
2022-11-28T07:04:37.927Z,967.56
2022-11-28T07:05:38.287Z,967.57
2022-11-28T07:06:38.678Z,967.49
2022-11-28T07:07:53.280Z,967.45
2022-11-28T07:08:40.277Z,967.36
2022-11-28T07:09:39.588Z,967.39
2022-11-28T07:10:39.969Z,967.33
2022-11-28T07:11:40.338Z,967.33
2022-11-28T07:12:40.740Z,967.33
2022-11-28T07:13:40.996Z,967.32
2022-11-28T07:14:41.371Z,967.26
2022-11-28T07:15:41.730Z,967.30
2022-11-28T07:16:42.159Z,967.25
2022-11-28T07:17:42.381Z,967.25
2022-11-28T07:18:42.773Z,967.20
2022-11-28T07:19:43.244Z,967.23
2022-11-28T07:20:43.401Z,967.27
2022-11-28T07:21:43.770Z,967.26
2022-11-28T07:22:44.152Z,967.32
2022-11-28T07:23:44.402Z,967.27
2022-11-28T07:24:44.786Z,967.28
2022-11-28T07:25:45.023Z,967.29
2022-11-28T07:26:45.335Z,967.28
2022-11-28T07:27:45.583Z,967.22
2022-11-28T07:28:45.973Z,967.21
2022-11-28T07:29:46.232Z,967.17
2022-11-28T07:30:46.624Z,967.17
2022-11-28T07:31:46.928Z,967.15
2022-11-28T07:32:47.193Z,967.10
2022-11-28T07:33:47.555Z,967.04
2022-11-28T07:34:50.235Z,967.00
2022-11-28T07:35:48.235Z,967.08
2022-11-28T07:36:48.622Z,967.03
2022-11-28T07:37:48.883Z,966.95
2022-11-28T07:38:49.266Z,966.91
2022-11-28T07:39:49.516Z,966.90
2022-11-28T07:40:49.905Z,966.88
2022-11-28T07:41:50.167Z,966.92
2022-11-28T07:42:50.567Z,966.90
2022-11-28T07:43:50.816Z,966.90
2022-11-28T07:44:51.218Z,966.90
2022-11-28T07:46:00.647Z,966.89
2022-11-28T07:46:53.058Z,966.92
2022-11-28T07:47:52.288Z,966.94
2022-11-28T07:48:52.677Z,966.89
2022-11-28T07:49:53.041Z,966.85
2022-11-28T07:50:53.430Z,966.85
2022-11-28T07:51:53.804Z,966.85
2022-11-28T07:52:54.180Z,966.86
2022-11-28T07:53:54.531Z,966.83
2022-11-28T07:54:54.938Z,966.84
2022-11-28T07:55:55.180Z,966.87
2022-11-28T07:57:12.328Z,966.94
2022-11-28T07:57:56.922Z,966.95
2022-11-28T07:59:01.808Z,966.99
2022-11-28T07:59:57.592Z,966.98
2022-11-28T08:00:56.913Z,966.95
2022-11-28T08:01:57.367Z,966.98
2022-11-28T08:02:57.592Z,966.95
2022-11-28T08:03:57.989Z,967.00
2022-11-28T08:04:58.299Z,967.05
2022-11-28T08:06:01.571Z,967.07
2022-11-28T08:06:58.843Z,967.06
2022-11-28T08:07:59.177Z,967.02
2022-11-28T08:08:59.421Z,966.98
2022-11-28T08:09:59.663Z,966.97
2022-11-28T08:11:00.066Z,966.93
2022-11-28T08:12:00.371Z,966.99
2022-11-28T08:13:00.685Z,966.96
2022-11-28T08:14:00.909Z,967.01
2022-11-28T08:15:01.306Z,967.02
2022-11-28T08:16:01.576Z,967.03
2022-11-28T08:17:01.923Z,966.98
2022-11-28T08:18:02.139Z,966.95
2022-11-28T08:19:02.524Z,966.99
2022-11-28T08:20:02.896Z,966.98
2022-11-28T08:21:03.277Z,966.98
2022-11-28T08:22:03.539Z,966.97
2022-11-28T08:23:03.932Z,966.97
2022-11-28T08:24:04.179Z,967.01
2022-11-28T08:25:04.578Z,967.02
2022-11-28T08:26:04.831Z,966.99
2022-11-28T08:27:05.237Z,966.97
2022-11-28T08:28:05.530Z,967.00
2022-11-28T08:29:05.806Z,966.99
2022-11-28T08:30:06.060Z,966.99
2022-11-28T08:31:06.506Z,966.96
2022-11-28T08:32:06.749Z,966.98
2022-11-28T08:33:07.172Z,967.03
2022-11-28T08:34:07.413Z,967.05
2022-11-28T08:35:07.810Z,967.03
2022-11-28T08:36:08.081Z,967.05
2022-11-28T08:37:08.499Z,967.10
2022-11-28T08:38:08.765Z,967.07
2022-11-28T08:39:23.337Z,966.98
2022-11-28T08:40:10.541Z,967.00
2022-11-28T08:41:09.893Z,967.00
2022-11-28T08:42:10.265Z,966.99
2022-11-28T08:43:10.655Z,967.08
2022-11-28T08:44:10.916Z,967.09
2022-11-28T08:45:11.352Z,967.12
2022-11-28T08:46:11.612Z,967.12
2022-11-28T08:47:11.875Z,967.13
2022-11-28T08:48:12.226Z,967.18
2022-11-28T08:49:12.632Z,967.15
2022-11-28T08:50:12.876Z,967.13
2022-11-28T08:51:13.258Z,967.15
2022-11-28T08:52:13.523Z,967.16
2022-11-28T08:53:18.627Z,967.15
2022-11-28T08:54:14.214Z,967.10
2022-11-28T08:55:14.617Z,967.15
2022-11-28T08:56:14.858Z,967.16
2022-11-28T08:57:15.258Z,967.15
2022-11-28T08:58:15.526Z,967.18
2022-11-28T08:59:15.911Z,967.21
2022-11-28T09:00:16.279Z,967.21
2022-11-28T09:01:16.747Z,967.22
2022-11-28T09:02:18.317Z,967.20
2022-11-28T09:03:17.290Z,967.24
2022-11-28T09:04:17.776Z,967.22
2022-11-28T09:05:18.061Z,967.23
2022-11-28T09:06:18.313Z,967.26
2022-11-28T09:07:18.696Z,967.23
2022-11-28T09:08:18.962Z,967.20
2022-11-28T09:09:19.361Z,967.23
2022-11-28T09:10:19.623Z,967.21
2022-11-28T09:11:20.021Z,967.23
2022-11-28T09:12:20.383Z,967.26
2022-11-28T09:13:20.774Z,967.26
2022-11-28T09:14:21.023Z,967.26
2022-11-28T09:15:21.423Z,967.27
2022-11-28T09:16:21.746Z,967.28
2022-11-28T09:17:22.050Z,967.28
2022-11-28T09:18:22.322Z,967.27
2022-11-28T09:19:22.594Z,967.26
2022-11-28T09:20:22.835Z,967.28
2022-11-28T09:21:23.231Z,967.32
2022-11-28T09:22:23.483Z,967.30
2022-11-28T09:23:23.876Z,967.33
2022-11-28T09:24:24.135Z,967.29
2022-11-28T09:25:24.502Z,967.26
2022-11-28T09:26:24.766Z,967.26
2022-11-28T09:27:25.138Z,967.29
2022-11-28T09:28:25.390Z,967.29
2022-11-28T09:29:25.777Z,967.27
2022-11-28T09:30:26.038Z,967.24
2022-11-28T09:31:26.454Z,967.26
2022-11-28T09:32:26.707Z,967.22
2022-11-28T09:33:27.089Z,967.26
2022-11-28T09:34:27.339Z,967.22
2022-11-28T09:35:27.738Z,967.20
2022-11-28T09:36:27.999Z,967.21
2022-11-28T09:37:28.390Z,967.18
2022-11-28T09:38:28.748Z,967.20
2022-11-28T09:39:43.686Z,967.19
2022-11-28T09:40:30.523Z,967.16
2022-11-28T09:41:29.850Z,967.17
2022-11-28T09:42:30.101Z,967.16
2022-11-28T09:43:30.491Z,967.16
2022-11-28T09:44:30.733Z,967.14
2022-11-28T09:45:31.135Z,967.16
2022-11-28T09:46:31.427Z,967.15
2022-11-28T09:47:31.709Z,967.17
2022-11-28T09:48:31.965Z,967.15
2022-11-28T09:49:38.488Z,967.15
2022-11-28T09:50:33.694Z,967.12
2022-11-28T09:51:33.003Z,967.12
2022-11-28T09:52:33.412Z,967.04
2022-11-28T09:53:33.673Z,967.07
2022-11-28T09:54:33.924Z,967.05
2022-11-28T09:55:34.332Z,966.98
2022-11-28T09:56:34.576Z,966.98
2022-11-28T09:57:34.966Z,966.95
2022-11-28T09:58:35.226Z,966.98
2022-11-28T09:59:35.614Z,966.94
2022-11-28T10:00:35.878Z,966.96
2022-11-28T10:01:36.276Z,966.93
2022-11-28T10:02:36.547Z,966.88
2022-11-28T10:03:36.970Z,966.89
2022-11-28T10:04:37.318Z,966.86
2022-11-28T10:05:37.557Z,966.87
2022-11-28T10:06:37.807Z,966.81
2022-11-28T10:07:38.256Z,966.82
2022-11-28T10:08:38.486Z,966.80
2022-11-28T10:09:38.878Z,966.80
2022-11-28T10:10:39.144Z,966.83
2022-11-28T10:11:39.547Z,966.82
2022-11-28T10:12:39.808Z,966.82
2022-11-28T10:14:06.000Z,966.79
2022-11-28T10:14:41.529Z,966.78
2022-11-28T10:15:40.851Z,966.77
2022-11-28T10:16:41.177Z,966.75
2022-11-28T10:17:41.446Z,966.77
2022-11-28T10:18:41.700Z,966.75
2022-11-28T10:19:57.636Z,966.75
2022-11-28T10:20:43.431Z,966.73
2022-11-28T10:21:42.754Z,966.73
2022-11-28T10:22:43.012Z,966.74
2022-11-28T10:23:43.425Z,966.75
2022-11-28T10:24:43.663Z,966.79
2022-11-28T10:25:44.096Z,966.75
2022-11-28T10:26:44.384Z,966.73
2022-11-28T10:27:44.630Z,966.74
2022-11-28T10:28:44.952Z,966.70
2022-11-28T10:29:45.679Z,966.73
2022-11-28T10:30:45.691Z,966.71
2022-11-28T10:31:45.947Z,966.67
2022-11-28T10:32:46.216Z,966.71
2022-11-28T10:33:46.566Z,966.68
2022-11-28T10:34:46.967Z,966.65
2022-11-28T10:35:47.207Z,966.66
2022-11-28T10:36:47.586Z,966.66
2022-11-28T10:37:47.847Z,966.65
2022-11-28T10:38:48.118Z,966.64
2022-11-28T10:39:48.364Z,966.64
2022-11-28T10:40:48.758Z,966.67
2022-11-28T10:41:49.005Z,966.68
2022-11-28T10:42:49.396Z,966.68
2022-11-28T10:43:49.749Z,966.67
2022-11-28T10:44:50.138Z,966.67
2022-11-28T10:45:50.485Z,966.68
2022-11-28T10:46:50.723Z,966.64
2022-11-28T10:47:51.004Z,966.65
2022-11-28T10:48:51.270Z,966.65
2022-11-28T10:49:51.521Z,966.60
2022-11-28T10:50:51.920Z,966.59
2022-11-28T10:51:52.170Z,966.64
2022-11-28T10:52:52.562Z,966.60
2022-11-28T10:53:52.810Z,966.65
2022-11-28T10:54:53.212Z,966.66
2022-11-28T10:55:53.459Z,966.66
2022-11-28T10:56:53.844Z,966.68
2022-11-28T10:57:54.097Z,966.71
2022-11-28T10:58:54.485Z,966.71
2022-11-28T10:59:54.728Z,966.73
2022-11-28T11:00:55.255Z,966.76
2022-11-28T11:01:55.426Z,966.76
2022-11-28T11:02:55.805Z,966.76
2022-11-28T11:03:56.073Z,966.75
2022-11-28T11:04:56.403Z,966.75
2022-11-28T11:05:56.637Z,966.78
2022-11-28T11:07:08.805Z,966.80
2022-11-28T11:07:58.497Z,966.77
2022-11-28T11:08:57.737Z,966.77
2022-11-28T11:09:58.056Z,966.76
2022-11-28T11:10:58.283Z,966.79
2022-11-28T11:11:58.527Z,966.75
2022-11-28T11:12:58.917Z,966.76
2022-11-28T11:13:59.167Z,966.78
2022-11-28T11:14:59.557Z,966.80
2022-11-28T11:15:59.880Z,966.79
2022-11-28T11:17:00.176Z,966.81
2022-11-28T11:18:00.418Z,966.84
2022-11-28T11:19:00.808Z,966.79
2022-11-28T11:20:01.057Z,966.81
2022-11-28T11:21:01.419Z,966.82
2022-11-28T11:22:01.687Z,966.80
2022-11-28T11:23:02.089Z,966.76
2022-11-28T11:24:02.340Z,966.79
2022-11-28T11:25:02.741Z,966.82
2022-11-28T11:26:02.991Z,966.82
2022-11-28T11:27:03.371Z,966.83
2022-11-28T11:28:03.742Z,966.86
2022-11-28T11:29:04.110Z,966.86
2022-11-28T11:30:04.351Z,966.82
2022-11-28T11:31:04.815Z,966.86
2022-11-28T11:32:05.084Z,966.88
2022-11-28T11:33:05.472Z,966.88
2022-11-28T11:34:05.714Z,966.89
2022-11-28T11:35:06.104Z,966.89
2022-11-28T11:36:06.353Z,966.91
2022-11-28T11:37:06.752Z,966.88
2022-11-28T11:38:07.111Z,966.88
2022-11-28T11:39:07.504Z,966.92
2022-11-28T11:40:07.755Z,966.90
2022-11-28T11:41:08.145Z,966.92
2022-11-28T11:42:08.396Z,966.93
2022-11-28T11:43:08.786Z,966.93
2022-11-28T11:44:09.035Z,966.94
2022-11-28T11:45:09.415Z,966.98
2022-11-28T11:46:09.767Z,966.97
2022-11-28T11:47:09.958Z,966.98
2022-11-28T11:48:10.217Z,966.97
2022-11-28T11:49:10.597Z,967.05
2022-11-28T11:50:10.848Z,967.06
2022-11-28T11:51:11.230Z,967.06
2022-11-28T11:52:11.478Z,967.05
2022-11-28T11:53:11.866Z,967.05
2022-11-28T11:54:12.109Z,967.06
2022-11-28T11:55:12.510Z,967.09
2022-11-28T11:56:12.749Z,967.07
2022-11-28T11:58:14.391Z,967.03
2022-11-28T11:59:13.712Z,967.05
2022-11-28T12:00:13.960Z,967.07
2022-11-28T12:01:14.387Z,967.05
2022-11-28T12:02:14.658Z,967.05
2022-11-28T12:03:15.058Z,967.07
2022-11-28T12:04:43.347Z,967.07
2022-11-28T12:05:16.512Z,967.10
2022-11-28T12:06:15.823Z,967.06
2022-11-28T12:07:16.211Z,967.08
2022-11-28T12:08:16.433Z,967.06
2022-11-28T12:09:16.831Z,967.09
2022-11-28T12:10:17.073Z,967.09
2022-11-28T12:11:17.465Z,967.11
2022-11-28T12:12:17.704Z,967.12
2022-11-28T12:13:18.084Z,967.10
2022-11-28T12:14:18.345Z,967.12
2022-11-28T12:15:18.615Z,967.12
2022-11-28T12:16:18.953Z,967.06
2022-11-28T12:17:47.255Z,967.06
2022-11-28T12:18:20.515Z,967.05
2022-11-28T12:19:19.834Z,967.10
2022-11-28T12:20:20.092Z,967.05
2022-11-28T12:21:20.479Z,967.06
2022-11-28T12:22:20.727Z,967.00
2022-11-28T12:23:21.125Z,967.00
2022-11-28T12:24:21.379Z,967.02
2022-11-28T12:25:21.778Z,966.99
2022-11-28T12:26:22.033Z,966.98
2022-11-28T12:27:22.408Z,966.98
2022-11-28T12:28:22.661Z,966.97
2022-11-28T12:29:23.085Z,966.97
2022-11-28T12:30:23.410Z,966.95
2022-11-28T12:31:23.812Z,966.97
2022-11-28T12:32:24.059Z,966.93
2022-11-28T12:33:24.451Z,966.97
2022-11-28T12:34:24.701Z,966.93
2022-11-28T12:35:25.080Z,966.96
2022-11-28T12:36:25.351Z,966.99
2022-11-28T12:37:32.999Z,966.97
2022-11-28T12:38:27.092Z,966.97
2022-11-28T12:39:26.420Z,966.94
2022-11-28T12:40:26.813Z,966.97
2022-11-28T12:41:32.208Z,966.98
2022-11-28T12:42:28.384Z,966.97
2022-11-28T12:43:27.743Z,966.93
2022-11-28T12:44:27.993Z,966.93
2022-11-28T12:45:28.383Z,966.91
2022-11-28T12:46:28.646Z,966.92
2022-11-28T12:47:28.921Z,966.95